Sugarloaf Regional (B21)
Carrabassett, ME
Field Elevation: 885
Lat: 45°05.12N  Long: 70°12.98W
CTAF/Unicom Freq: 122.8000
   
    
Weather Advisories
2017-04-30   01:04 Z
Altimeter 29.92" Hg
Wind 360° @ 13 KT
Gusts 21 KT
Visibility 10 SM
Temperature 12° C (54° F)
Dewpoint -1° C (30° F)
Relative Humidity 42%
Density Altitude --
Condensation Altitude 7,200 feet
Wind and Runways
Indicated Runway = 35
Headwind = 13 kt
Crosswind = 2 kt
History
 
 
 
More Info
NOAA Forecast
 
 
About Us
Belfort Instrument
 
 
FAA Disclaimer: The data displayed is for advisory purposes only and is not to be used for flight planning or operations. For official data, please call (not available) to hear the current automated AWOS voice message.
  METAR B21 300104Z AUTO 36013G21KT 10 SM 12/M01 A2992